Bucksport, ME

6:47 AM EST on December 26, 2014 (GMT -0500)
Mosquito Mountain | Change Station
CLOSE
Current Station
Personal Weather Station
Location: Frankfort, ME
Elevation: 204 ft
Nearby Weather Stations

Elev 204 ft 44.59 °N, 68.87 °W | Updated 4 minutes ago

Partly Cloudy
Partly Cloudy
38.3 °F
Feels Like 33 °F
N
6.8
Wind Variable Wind from SW

Today
High -- | Low -- °F
--% Chance of Precip.
Yesterday
High -- | Low -- °F
Precip. -- in
7:10 AM 4:00 PM
Waxing Crescent, 25% visible
Pressure 29.88 in
Visibility 10.0 miles
Clouds Mostly Cloudy 5500 ft
Windchill 33 °F
Dew Point 28 °F
Humidity 66%
Rainfall 0.00 in
Snow Depth Not available.
UV 0 out of 12
Pollen .10 out of 12
Air Quality Not available.
Flu Activity Not available.
METAR KBGR 261053Z 23006KT 10SM BKN055 04/M04 A2988 RMK AO2 SLP119 T00391044

More Conditions Fewer Conditions

Pressure 29.88 in
Visibility 10.0 miles
Clouds Mostly Cloudy 5500 ft
Windchill 33 °F
Dew Point 28 °F
Humidity 66%
Rainfall 0.00 in
Snow Depth Not available.
UV 0 out of 12
Pollen .10 out of 12
Air Quality Not available.
Flu Activity Not available.
METAR KBGR 261053Z 23006KT 10SM BKN055 04/M04 A2988 RMK AO2 SLP119 T00391044

More Conditions Fewer Conditions

10-Day Weather Forecast

Almanac

Astronomy

Dec. 26, 2014 Rise Set
Actual Time
Civil Twilight
Nautical Twilight
Astronomical Twilight
Moon
Length of Visible Light
Length of Day
Tomorrow will be .
, % of the Moon is Illuminated

Today's Extremes

State Highs State Lows

Community

WunderPhotos

Upload Photos

1,780,580 photos uploaded!

WunderBlogs® & News

Nearby

Air Quality

  Air Quality AQ Index Pollutant
Not available.

Snow Depth

Station Depth Elevation

Earthquake Activity

City Distance Mag. Time & Date
Minimum magnitude displayed is 2.5.

Coastal Water Temperatures

Place Temperature

Nearby Weather Stations